Time;durP1;ratioP1;P1;durP2;ratioP2;P2;SDS_P1;SDS_P2;PMS_P1;PMS_P2;Temp;Humidity;BMP_temperature;BMP_pressure;BME280_temperature;BME280_humidity;BME280_pressure;Samples;Min_cycle;Max_cycle;Signal;HPM_P1;HPM_P2
2021/07/12 00:02:16;;;;;;;0.00;0.00;;;17.80;99.90;;;;;;5090565;28;20162;-70
2021/07/12 00:04:42;;;;;;;0.30;0.30;;;17.80;99.90;;;;;;5090445;28;20164;-70
2021/07/12 00:07:08;;;;;;;0.00;0.00;;;17.80;99.90;;;;;;5090336;28;20170;-70
2021/07/12 00:09:34;;;;;;;0.00;0.00;;;17.80;99.90;;;;;;5090482;28;20156;-70
2021/07/12 00:12:00;;;;;;;0.35;0.35;;;17.80;99.90;;;;;;5090388;28;20219;-71
2021/07/12 00:14:26;;;;;;;0.38;0.38;;;17.70;99.90;;;;;;5090199;28;20629;-71
2021/07/12 00:16:52;;;;;;;0.52;0.52;;;17.80;99.90;;;;;;5090186;28;20220;-71
2021/07/12 00:19:18;;;;;;;0.10;0.10;;;17.70;99.90;;;;;;5090133;28;20186;-71
2021/07/12 00:21:44;;;;;;;0.00;0.00;;;17.70;99.90;;;;;;5072043;28;20514;-71
2021/07/12 00:24:10;;;;;;;0.10;0.10;;;17.60;99.90;;;;;;5090046;28;20224;-70
2021/07/12 00:26:35;;;;;;;0.00;0.00;;;17.60;99.90;;;;;;5089956;28;20255;-71
2021/07/12 00:29:02;;;;;;;0.00;0.00;;;17.60;99.90;;;;;;5089943;28;20188;-71
2021/07/12 00:31:28;;;;;;;0.20;0.20;;;17.50;99.90;;;;;;5090108;28;20156;-71
2021/07/12 00:33:54;;;;;;;0.00;0.00;;;17.50;99.90;;;;;;5089874;28;20160;-70
2021/07/12 00:36:19;;;;;;;0.20;0.20;;;17.40;99.90;;;;;;5088864;28;20193;-71
2021/07/12 00:38:45;;;;;;;0.00;0.00;;;17.40;99.90;;;;;;5089584;28;20222;-71
2021/07/12 00:41:11;;;;;;;1.45;0.50;;;17.40;99.90;;;;;;5089739;28;20187;-71
2021/07/12 00:43:39;;;;;;;0.00;0.00;;;17.40;99.90;;;;;;5089334;28;20275;-70
2021/07/12 00:46:08;;;;;;;0.20;0.20;;;17.40;99.90;;;;;;5071677;28;20238;-70
2021/07/12 00:48:34;;;;;;;0.10;0.10;;;17.40;99.90;;;;;;5088985;28;20188;-71
2021/07/12 00:51:01;;;;;;;0.75;0.47;;;17.40;99.90;;;;;;5089533;28;20172;-71
2021/07/12 00:53:27;;;;;;;0.00;0.00;;;17.40;99.90;;;;;;5089611;28;20160;-72
2021/07/12 00:55:54;;;;;;;0.13;0.13;;;17.30;99.90;;;;;;5089503;28;20191;-70
2021/07/12 00:58:22;;;;;;;0.00;0.00;;;17.30;99.90;;;;;;5089542;28;20164;-70
2021/07/12 01:00:52;;;;;;;1.70;0.82;;;17.30;99.90;;;;;;5089419;28;20168;-70
2021/07/12 01:03:19;;;;;;;0.00;0.00;;;17.40;99.90;;;;;;5089425;28;20161;-71
2021/07/12 01:05:45;;;;;;;0.00;0.00;;;17.30;99.90;;;;;;5089384;28;20187;-71
2021/07/12 01:08:12;;;;;;;0.03;0.03;;;17.30;99.90;;;;;;5089327;28;20198;-70
2021/07/12 01:10:41;;;;;;;0.20;0.20;;;17.30;99.90;;;;;;5089320;28;20156;-71
2021/07/12 01:13:23;;;;;;;0.00;0.00;;;17.20;99.90;;;;;;5089354;28;20152;-71
2021/07/12 01:16:07;;;;;;;0.10;0.10;;;17.20;99.90;;;;;;5089214;28;20187;-70
2021/07/12 01:18:59;;;;;;;0.00;0.00;;;17.10;99.90;;;;;;5089427;28;20201;-72
2021/07/12 01:21:40;;;;;;;0.35;0.35;;;17.10;99.90;;;;;;5007510;28;20221;-70
2021/07/12 01:24:43;;;;;;;0.00;0.00;;;17.10;99.90;;;;;;4991395;28;20179;-72
2021/07/12 01:27:42;;;;;;;0.10;0.10;;;17.00;99.90;;;;;;5007248;28;20186;-72
2021/07/12 01:30:16;;;;;;;0.22;0.22;;;16.90;99.90;;;;;;5007540;28;20221;-71
2021/07/12 01:33:20;;;;;;;1.13;1.02;;;16.90;99.90;;;;;;5007548;28;20194;-71
2021/07/12 01:36:05;;;;;;;0.03;0.03;;;16.80;99.90;;;;;;4930198;29;20205;-71
2021/07/12 01:38:44;;;;;;;2.22;0.28;;;16.80;99.90;;;;;;4930201;29;20222;-71
2021/07/12 01:41:13;;;;;;;0.45;0.15;;;16.80;99.90;;;;;;4914281;29;20240;-71
2021/07/12 01:44:10;;;;;;;0.30;0.30;;;16.70;99.90;;;;;;4930043;29;20237;-71
2021/07/12 01:47:05;;;;;;;0.10;0.10;;;16.70;99.90;;;;;;4929624;29;20217;-70
2021/07/12 01:49:40;;;;;;;0.68;0.68;;;16.70;99.90;;;;;;4930117;29;20181;-71
2021/07/12 01:52:09;;;;;;;0.08;0.08;;;16.70;99.90;;;;;;4930106;29;20256;-70
2021/07/12 01:55:15;;;;;;;0.08;0.08;;;16.70;99.90;;;;;;4929950;29;20177;-71
2021/07/12 01:57:58;;;;;;;0.10;0.03;;;16.70;99.90;;;;;;4945840;28;20634;-71
2021/07/12 02:00:25;;;;;;;1.85;1.13;;;16.70;99.90;;;;;;4987390;28;20167;-71
2021/07/12 02:02:55;;;;;;;0.00;0.00;;;16.70;99.90;;;;;;4987601;28;20235;-70
2021/07/12 02:05:25;;;;;;;1.92;0.43;;;16.60;99.90;;;;;;4987382;28;20210;-71
2021/07/12 02:07:53;;;;;;;0.35;0.35;;;16.70;99.90;;;;;;4971162;28;20199;-71
2021/07/12 02:10:20;;;;;;;0.43;0.43;;;16.60;99.90;;;;;;4994438;28;20163;-70
2021/07/12 02:12:51;;;;;;;0.10;0.10;;;16.60;99.90;;;;;;5047092;28;20189;-71
2021/07/12 02:15:18;;;;;;;0.20;0.20;;;16.50;99.90;;;;;;5048141;28;20189;-71
2021/07/12 02:17:47;;;;;;;0.13;0.13;;;16.50;99.90;;;;;;5048182;28;20191;-70
2021/07/12 02:20:14;;;;;;;0.10;0.10;;;16.70;99.90;;;;;;5048312;28;20630;-71
2021/07/12 02:22:41;;;;;;;0.00;0.00;;;16.90;99.90;;;;;;5048270;28;20204;-71
2021/07/12 02:25:12;;;;;;;0.20;0.20;;;16.90;99.90;;;;;;5048097;28;20255;-71
2021/07/12 02:27:40;;;;;;;0.73;0.60;;;17.20;99.90;;;;;;5046657;28;20201;-71
2021/07/12 02:30:08;;;;;;;1.00;0.30;;;17.30;99.90;;;;;;5046924;28;20178;-71
2021/07/12 02:32:36;;;;;;;0.00;0.00;;;17.30;99.90;;;;;;5048196;28;20193;-71
2021/07/12 02:35:04;;;;;;;0.28;0.28;;;17.40;99.90;;;;;;5047972;28;20193;-71
2021/07/12 02:37:33;;;;;;;0.38;0.38;;;17.40;99.90;;;;;;5048167;28;20153;-71
2021/07/12 02:40:00;;;;;;;0.75;0.45;;;17.10;99.90;;;;;;5048204;28;20158;-71
2021/07/12 02:42:26;;;;;;;0.10;0.10;;;16.90;99.90;;;;;;5048094;28;20153;-71
2021/07/12 02:44:53;;;;;;;0.00;0.00;;;16.80;99.90;;;;;;5080019;28;20296;-71
2021/07/12 02:47:19;;;;;;;0.30;0.30;;;16.70;99.90;;;;;;5088644;28;20238;-71
2021/07/12 02:49:45;;;;;;;0.08;0.03;;;16.70;99.90;;;;;;5088664;28;20161;-71
2021/07/12 02:52:20;;;;;;;0.10;0.10;;;16.60;99.90;;;;;;5088394;28;20161;-71
2021/07/12 02:54:47;;;;;;;0.00;0.00;;;16.60;99.90;;;;;;5088377;28;20156;-71
2021/07/12 02:57:14;;;;;;;0.08;0.08;;;16.60;99.90;;;;;;5088394;28;20179;-71
2021/07/12 02:59:40;;;;;;;0.00;0.00;;;16.50;99.90;;;;;;5091351;28;20156;-70
2021/07/12 03:02:06;;;;;;;0.08;0.08;;;16.50;99.90;;;;;;5092113;28;20170;-70
2021/07/12 03:04:32;;;;;;;0.47;0.30;;;16.50;99.90;;;;;;5092183;28;20160;-71
2021/07/12 03:07:02;;;;;;;0.10;0.10;;;16.50;99.90;;;;;;5091897;28;20187;-71
2021/07/12 03:09:36;;;;;;;0.00;0.00;;;16.50;99.90;;;;;;5091762;28;20227;-71
2021/07/12 03:12:16;;;;;;;0.00;0.00;;;16.50;99.90;;;;;;5073880;28;20172;-71
2021/07/12 03:15:03;;;;;;;0.63;0.63;;;16.50;99.90;;;;;;5091801;28;20160;-71
2021/07/12 03:17:32;;;;;;;0.10;0.10;;;16.50;99.90;;;;;;5091770;28;20163;-71
2021/07/12 03:20:00;;;;;;;0.00;0.00;;;16.50;99.90;;;;;;5091648;28;20213;-71
2021/07/12 03:22:27;;;;;;;1.13;0.40;;;16.50;99.90;;;;;;5091893;28;20217;-71
2021/07/12 03:24:57;;;;;;;0.57;0.57;;;16.50;99.90;;;;;;5091650;28;20160;-71
2021/07/12 03:27:25;;;;;;;1.65;0.90;;;16.50;99.90;;;;;;5091608;28;20184;-71
2021/07/12 03:29:53;;;;;;;2.08;0.65;;;16.50;99.90;;;;;;5091768;28;20220;-71
2021/07/12 03:32:30;;;;;;;0.30;0.30;;;16.50;99.90;;;;;;5091613;28;20163;-71
2021/07/12 03:34:58;;;;;;;0.47;0.47;;;16.50;99.90;;;;;;5091558;28;20195;-71
2021/07/12 03:37:25;;;;;;;0.00;0.00;;;16.50;99.90;;;;;;5091556;28;20164;-72
2021/07/12 03:39:52;;;;;;;0.30;0.28;;;16.50;99.90;;;;;;5091185;28;20166;-71
2021/07/12 03:42:19;;;;;;;0.00;0.00;;;16.50;99.90;;;;;;5073318;28;20167;-71
2021/07/12 03:44:46;;;;;;;0.00;0.00;;;16.70;99.90;;;;;;5090707;28;20364;-71
2021/07/12 03:47:30;;;;;;;0.25;0.20;;;16.90;99.90;;;;;;5091130;28;20225;-71
2021/07/12 03:50:12;;;;;;;0.17;0.17;;;17.20;99.90;;;;;;5089140;28;20156;-71
2021/07/12 03:52:43;;;;;;;0.25;0.25;;;17.60;99.90;;;;;;5091167;28;20175;-71
2021/07/12 03:55:10;;;;;;;0.05;0.05;;;17.80;99.90;;;;;;5091060;28;20207;-71
2021/07/12 03:57:37;;;;;;;0.20;0.20;;;17.90;99.90;;;;;;5090884;28;20160;-71
2021/07/12 04:00:06;;;;;;;0.20;0.20;;;18.10;99.90;;;;;;5091050;28;20160;-71
2021/07/12 04:02:32;;;;;;;1.45;0.75;;;18.40;99.90;;;;;;5090902;28;20169;-71
2021/07/12 04:04:58;;;;;;;0.65;0.65;;;18.50;99.90;;;;;;5090941;28;20196;-71
2021/07/12 04:07:24;;;;;;;0.45;0.45;;;19.00;99.90;;;;;;5090811;28;20187;-71
2021/07/12 04:09:50;;;;;;;0.77;0.47;;;19.10;99.90;;;;;;5090508;28;20164;-71
2021/07/12 04:12:23;;;;;;;1.23;0.52;;;19.20;99.90;;;;;;5090712;28;20157;-71
2021/07/12 04:14:54;;;;;;;0.40;0.40;;;19.30;99.90;;;;;;5090736;28;20192;-71
2021/07/12 04:17:20;;;;;;;1.20;1.10;;;19.40;99.90;;;;;;5090682;28;20216;-71
2021/07/12 04:19:47;;;;;;;2.80;1.33;;;19.50;99.90;;;;;;5090673;28;20185;-71
2021/07/12 04:22:13;;;;;;;0.28;0.25;;;19.60;99.90;;;;;;5090463;28;20239;-71
2021/07/12 04:24:39;;;;;;;0.05;0.05;;;19.80;99.90;;;;;;5090363;28;20156;-71
2021/07/12 04:27:06;;;;;;;0.10;0.10;;;19.80;99.90;;;;;;5090316;28;20156;-71
2021/07/12 04:29:32;;;;;;;0.10;0.10;;;19.70;99.90;;;;;;5090396;28;20174;-72
2021/07/12 04:32:00;;;;;;;0.22;0.22;;;19.60;99.90;;;;;;5072430;28;20172;-71
2021/07/12 04:34:28;;;;;;;0.47;0.47;;;19.40;99.90;;;;;;5090438;28;20183;-71
2021/07/12 04:36:54;;;;;;;0.65;0.50;;;19.20;99.90;;;;;;5090142;28;20152;-71
2021/07/12 04:39:20;;;;;;;0.13;0.13;;;19.40;99.90;;;;;;5090087;28;20156;-71
2021/07/12 04:41:47;;;;;;;0.32;0.32;;;19.80;99.90;;;;;;5090032;28;20168;-71
2021/07/12 04:44:13;;;;;;;1.05;0.73;;;20.20;99.90;;;;;;5089861;28;20283;-71
2021/07/12 04:46:40;;;;;;;0.65;0.28;;;20.40;99.90;;;;;;5089945;28;20661;-71
2021/07/12 04:49:06;;;;;;;0.52;0.50;;;20.50;99.90;;;;;;5089845;28;20192;-71
2021/07/12 04:51:32;;;;;;;0.10;0.10;;;20.40;99.90;;;;;;5072081;28;20640;-71
2021/07/12 04:53:59;;;;;;;5.05;0.98;;;20.50;99.90;;;;;;5089940;28;20176;-71
2021/07/12 04:56:25;;;;;;;0.00;0.00;;;20.90;99.90;;;;;;5089759;28;20199;-71
2021/07/12 04:58:52;;;;;;;0.38;0.38;;;21.40;99.90;;;;;;5089838;28;20160;-71
2021/07/12 05:01:18;;;;;;;0.13;0.13;;;20.90;99.90;;;;;;5089691;28;20208;-71
2021/07/12 05:03:44;;;;;;;0.65;0.43;;;21.00;99.90;;;;;;5089798;28;20164;-71
2021/07/12 05:06:11;;;;;;;0.40;0.40;;;20.40;99.90;;;;;;5089680;28;20192;-70
2021/07/12 05:08:37;;;;;;;0.30;0.30;;;20.10;99.90;;;;;;5089203;28;20196;-71
2021/07/12 05:11:05;;;;;;;0.35;0.35;;;19.80;99.90;;;;;;5089501;28;20160;-71
2021/07/12 05:13:32;;;;;;;0.15;0.15;;;19.50;99.90;;;;;;5089507;28;20694;-71
2021/07/12 05:15:58;;;;;;;0.30;0.30;;;19.50;99.90;;;;;;5089316;28;20188;-71
2021/07/12 05:18:24;;;;;;;0.47;0.47;;;19.50;99.90;;;;;;5089396;28;20151;-71
2021/07/12 05:20:53;;;;;;;0.30;0.30;;;19.40;99.90;;;;;;5088968;28;20156;-71
2021/07/12 05:23:20;;;;;;;0.50;0.50;;;19.20;99.90;;;;;;5089585;28;20167;-71
2021/07/12 05:25:46;;;;;;;0.43;0.43;;;19.10;99.90;;;;;;5089226;28;20247;-71
2021/07/12 05:28:12;;;;;;;0.05;0.05;;;19.20;99.90;;;;;;5071235;28;20196;-71
2021/07/12 05:30:38;;;;;;;0.32;0.30;;;19.50;99.90;;;;;;5089260;28;20152;-71
2021/07/12 05:33:05;;;;;;;0.52;0.52;;;19.70;99.90;;;;;;5089345;28;20180;-71
2021/07/12 05:35:31;;;;;;;0.28;0.28;;;19.70;99.90;;;;;;5070929;28;20259;-71
2021/07/12 05:37:57;;;;;;;0.52;0.52;;;19.60;99.90;;;;;;5089126;28;20218;-71
2021/07/12 05:40:23;;;;;;;0.17;0.17;;;19.80;99.90;;;;;;5087954;28;20251;-71
2021/07/12 05:42:49;;;;;;;0.93;0.93;;;20.00;99.90;;;;;;5084896;28;20156;-71
2021/07/12 05:45:15;;;;;;;0.20;0.20;;;20.10;99.90;;;;;;5088516;28;20253;-71
2021/07/12 05:47:41;;;;;;;0.17;0.17;;;20.20;99.90;;;;;;5105933;28;20738;-71
2021/07/12 05:50:10;;;;;;;0.10;0.10;;;20.10;99.90;;;;;;5108871;28;20274;-71
2021/07/12 05:52:36;;;;;;;0.45;0.35;;;20.20;99.90;;;;;;5109129;28;20563;-71
2021/07/12 05:55:04;;;;;;;0.22;0.22;;;20.00;99.90;;;;;;5108650;28;20215;-72
2021/07/12 05:57:30;;;;;;;1.10;1.05;;;20.40;99.90;;;;;;5109244;28;20162;-72
2021/07/12 05:59:56;;;;;;;0.43;0.43;;;20.70;99.90;;;;;;5108974;28;20163;-72
2021/07/12 06:02:22;;;;;;;1.73;1.15;;;20.90;99.90;;;;;;5109031;28;20216;-72
2021/07/12 06:04:48;;;;;;;0.40;0.40;;;20.80;99.90;;;;;;5108608;28;20160;-72
2021/07/12 06:07:14;;;;;;;0.82;0.82;;;21.10;99.90;;;;;;5108952;28;20185;-71
2021/07/12 06:09:40;;;;;;;0.38;0.38;;;20.80;99.90;;;;;;5107687;28;20167;-72
2021/07/12 06:12:06;;;;;;;0.43;0.43;;;20.60;99.90;;;;;;5109001;28;20155;-72
2021/07/12 06:14:32;;;;;;;0.30;0.30;;;20.60;99.90;;;;;;5108751;28;20155;-72
2021/07/12 06:16:58;;;;;;;0.25;0.22;;;20.50;99.90;;;;;;5108479;28;20212;-71
2021/07/12 06:19:25;;;;;;;1.27;0.65;;;20.60;99.90;;;;;;5108985;28;20169;-71
2021/07/12 06:21:50;;;;;;;0.40;0.40;;;20.80;99.90;;;;;;5108793;28;20166;-71
2021/07/12 06:24:17;;;;;;;0.17;0.17;;;20.60;99.90;;;;;;5108982;28;20238;-71
2021/07/12 06:26:43;;;;;;;1.25;1.10;;;20.40;99.90;;;;;;5108816;28;20184;-72
2021/07/12 06:29:08;;;;;;;0.40;0.40;;;20.10;99.90;;;;;;5086001;28;20219;-72
2021/07/12 06:31:36;;;;;;;0.38;0.38;;;20.10;99.90;;;;;;5070535;28;20180;-72
2021/07/12 06:34:02;;;;;;;0.30;0.30;;;20.10;99.90;;;;;;5090781;28;20176;-72
2021/07/12 06:36:28;;;;;;;0.10;0.10;;;20.00;99.90;;;;;;5085052;28;20200;-72
2021/07/12 06:38:54;;;;;;;1.55;0.90;;;19.80;99.90;;;;;;5072199;28;20193;-71
2021/07/12 06:41:21;;;;;;;1.88;0.50;;;19.60;99.90;;;;;;5072179;28;20165;-71
2021/07/12 06:43:46;;;;;;;1.60;0.25;;;19.60;99.90;;;;;;5072006;28;20240;-71
2021/07/12 06:46:15;;;;;;;0.10;0.10;;;19.60;99.90;;;;;;5089183;28;20172;-72
2021/07/12 06:48:41;;;;;;;0.88;0.88;;;19.70;99.90;;;;;;5092165;28;20286;-72
2021/07/12 06:51:08;;;;;;;0.82;0.65;;;19.60;99.90;;;;;;5092069;28;20156;-72
2021/07/12 06:53:35;;;;;;;8.18;0.90;;;19.70;99.90;;;;;;5092097;28;20235;-72
2021/07/12 06:56:03;;;;;;;0.40;0.40;;;19.90;99.90;;;;;;5085385;28;20175;-72
2021/07/12 06:58:29;;;;;;;0.47;0.38;;;19.90;99.90;;;;;;5092240;28;20198;-72
2021/07/12 07:00:55;;;;;;;0.22;0.22;;;20.00;99.90;;;;;;5091917;28;20164;-72
2021/07/12 07:03:22;;;;;;;0.10;0.10;;;20.00;99.90;;;;;;5073923;28;20504;-72
2021/07/12 07:05:48;;;;;;;0.88;0.32;;;20.30;99.90;;;;;;5071826;28;20153;-71
2021/07/12 07:08:14;;;;;;;0.20;0.20;;;20.90;99.90;;;;;;5071613;28;20220;-71
2021/07/12 07:10:40;;;;;;;0.70;0.55;;;21.80;99.90;;;;;;5054020;28;20165;-72
2021/07/12 07:13:06;;;;;;;0.10;0.10;;;22.10;99.90;;;;;;5071710;28;20190;-72
2021/07/12 07:15:32;;;;;;;0.45;0.45;;;22.30;99.90;;;;;;5071631;28;20161;-72
2021/07/12 07:17:59;;;;;;;0.77;0.73;;;22.50;99.90;;;;;;5053449;28;20257;-73
2021/07/12 07:20:25;;;;;;;0.50;0.50;;;22.70;99.90;;;;;;5075504;28;20181;-72
2021/07/12 07:22:52;;;;;;;0.10;0.10;;;22.40;99.90;;;;;;5053531;28;20180;-72
2021/07/12 07:25:18;;;;;;;0.25;0.25;;;22.40;99.90;;;;;;5070283;28;20203;-72
2021/07/12 07:27:44;;;;;;;2.90;0.82;;;22.40;99.90;;;;;;5071449;28;20207;-72
2021/07/12 07:30:12;;;;;;;0.52;0.52;;;22.40;99.90;;;;;;5073241;28;20180;-72
2021/07/12 07:32:39;;;;;;;0.22;0.22;;;22.60;99.90;;;;;;5091003;28;20178;-73
2021/07/12 07:35:07;;;;;;;0.57;0.57;;;22.50;99.90;;;;;;5090654;28;20182;-74
2021/07/12 07:37:33;;;;;;;0.22;0.22;;;22.50;99.90;;;;;;5078414;28;20726;-74
2021/07/12 07:40:00;;;;;;;0.45;0.45;;;23.20;99.90;;;;;;5090482;28;20171;-74
2021/07/12 07:42:25;;;;;;;0.82;0.45;;;23.50;99.90;;;;;;5091134;28;20223;-74
2021/07/12 07:44:52;;;;;;;0.10;0.10;;;23.50;99.90;;;;;;5072169;28;20642;-74
2021/07/12 07:47:18;;;;;;;1.17;1.17;;;24.20;99.90;;;;;;5090862;28;20159;-75
2021/07/12 07:49:44;;;;;;;0.20;0.20;;;24.90;99.90;;;;;;5072917;28;20243;-74
2021/07/12 07:52:10;;;;;;;14.35;0.63;;;25.40;99.90;;;;;;5090936;28;20179;-74
2021/07/12 07:54:36;;;;;;;0.85;0.85;;;24.60;99.90;;;;;;5090781;28;20192;-75
2021/07/12 07:57:02;;;;;;;0.40;0.25;;;24.20;99.90;;;;;;5090406;28;20194;-74
2021/07/12 07:59:28;;;;;;;0.43;0.43;;;23.90;99.90;;;;;;5090755;28;20160;-74
2021/07/12 08:01:54;;;;;;;0.25;0.25;;;24.10;99.90;;;;;;5087751;28;20181;-74
2021/07/12 08:04:20;;;;;;;0.73;0.73;;;24.20;99.90;;;;;;5066845;28;20266;-74
2021/07/12 08:06:46;;;;;;;0.38;0.38;;;24.20;99.90;;;;;;5089956;28;20191;-74
2021/07/12 08:09:12;;;;;;;0.20;0.20;;;24.60;99.90;;;;;;5080615;28;20213;-75
2021/07/12 08:11:37;;;;;;;0.63;0.63;;;25.30;99.90;;;;;;5082301;28;20175;-74
2021/07/12 08:14:04;;;;;;;0.20;0.10;;;25.60;99.90;;;;;;5071951;28;20364;-74
2021/07/12 08:16:29;;;;;;;0.30;0.30;;;26.00;99.90;;;;;;5089839;28;20191;-74
2021/07/12 08:18:55;;;;;;;0.98;0.65;;;26.00;99.90;;;;;;5089913;28;20166;-74
2021/07/12 08:21:22;;;;;;;0.85;0.32;;;26.20;99.90;;;;;;5088900;28;20175;-75
2021/07/12 08:23:48;;;;;;;0.90;0.57;;;26.70;99.90;;;;;;5054656;28;20183;-69
2021/07/12 08:26:14;;;;;;;0.80;0.55;;;26.80;99.90;;;;;;5086251;28;20234;-68
2021/07/12 08:28:41;;;;;;;0.65;0.63;;;26.60;99.90;;;;;;5067525;28;20187;-69
2021/07/12 08:31:08;;;;;;;4.90;1.85;;;26.10;99.90;;;;;;5080619;28;20642;-69
2021/07/12 08:33:34;;;;;;;0.35;0.35;;;25.80;99.90;;;;;;5078556;28;20164;-69
2021/07/12 08:36:00;;;;;;;1.35;0.30;;;25.20;99.90;;;;;;5067038;28;20163;-69
2021/07/12 08:38:26;;;;;;;0.38;0.38;;;24.70;99.90;;;;;;5072078;28;20171;-68
2021/07/12 08:40:54;;;;;;;0.52;0.52;;;24.50;99.90;;;;;;5069630;28;20180;-69
2021/07/12 08:43:20;;;;;;;0.45;0.25;;;24.00;99.90;;;;;;5069092;28;20199;-69
2021/07/12 08:45:46;;;;;;;0.80;0.80;;;23.90;99.90;;;;;;5051497;28;20565;-68
2021/07/12 08:48:11;;;;;;;0.55;0.35;;;24.00;99.90;;;;;;5077479;28;20203;-69
2021/07/12 08:50:37;;;;;;;0.80;0.50;;;24.20;99.90;;;;;;5089332;28;20564;-69
2021/07/12 08:53:03;;;;;;;0.57;0.57;;;24.40;99.90;;;;;;5088760;28;20202;-69
2021/07/12 08:55:31;;;;;;;1.65;0.95;;;24.50;99.90;;;;;;5069186;28;20691;-68
2021/07/12 08:58:13;;;;;;;2.22;1.00;;;24.50;99.90;;;;;;5076178;28;20322;-68
2021/07/12 09:00:52;;;;;;;0.35;0.35;;;24.10;99.90;;;;;;5070033;28;20160;-69
2021/07/12 09:03:28;;;;;;;0.60;0.60;;;24.00;99.90;;;;;;5087700;28;20178;-68
2021/07/12 09:06:08;;;;;;;1.75;1.35;;;24.40;99.90;;;;;;5069112;28;20250;-68
2021/07/12 09:08:42;;;;;;;1.10;0.63;;;25.00;99.90;;;;;;5076950;28;20191;-69
2021/07/12 09:11:11;;;;;;;0.85;0.63;;;25.60;99.90;;;;;;5088372;28;20197;-69
2021/07/12 09:13:45;;;;;;;0.85;0.63;;;26.10;99.90;;;;;;5057635;28;20182;-68
2021/07/12 09:16:32;;;;;;;0.30;0.30;;;27.10;99.90;;;;;;5068840;28;20164;-68
2021/07/12 09:19:04;;;;;;;0.32;0.32;;;28.20;99.90;;;;;;5084287;28;20211;-68
2021/07/12 09:21:41;;;;;;;0.60;0.60;;;27.60;99.90;;;;;;5087401;28;20159;-68
2021/07/12 09:24:38;;;;;;;0.80;0.68;;;27.90;99.90;;;;;;5088836;28;20204;-68
2021/07/12 09:27:09;;;;;;;1.60;0.98;;;27.90;99.90;;;;;;5050507;28;20278;-68
2021/07/12 09:29:39;;;;;;;2.80;1.75;;;28.30;99.90;;;;;;5075200;28;20195;-68
2021/07/12 09:32:17;;;;;;;0.60;0.60;;;28.20;99.90;;;;;;5088726;28;20198;-68
2021/07/12 09:34:46;;;;;;;1.58;0.95;;;27.30;99.90;;;;;;5070683;28;20697;-68
2021/07/12 09:37:14;;;;;;;0.93;0.57;;;27.90;99.90;;;;;;5104239;28;20158;-68
2021/07/12 09:39:46;;;;;;;0.47;0.47;;;28.70;99.90;;;;;;5104750;28;20179;-67
2021/07/12 09:42:22;;;;;;;1.30;0.63;;;28.50;99.90;;;;;;5088536;28;20701;-69
2021/07/12 09:44:55;;;;;;;1.10;0.93;;;28.80;99.90;;;;;;5088314;28;20219;-68
2021/07/12 09:47:26;;;;;;;0.50;0.50;;;28.90;99.90;;;;;;5064246;28;20180;-71
2021/07/12 09:50:30;;;;;;;2.05;1.20;;;27.40;99.90;;;;;;5077474;28;20180;-71
2021/07/12 09:53:03;;;;;;;0.45;0.43;;;26.80;99.90;;;;;;5018674;28;20193;-69
2021/07/12 09:55:32;;;;;;;0.68;0.68;;;27.90;99.90;;;;;;5036453;28;20235;-69
2021/07/12 09:58:11;;;;;;;0.93;0.93;;;28.80;99.90;;;;;;5017024;28;20535;-72
2021/07/12 10:00:57;;;;;;;0.82;0.82;;;30.00;99.90;;;;;;5009728;28;20201;-72
2021/07/12 10:03:23;;;;;;;0.28;0.28;;;30.50;99.90;;;;;;5016385;28;20618;-72
2021/07/12 10:05:55;;;;;;;0.60;0.60;;;28.80;99.90;;;;;;5026678;28;20205;-72
2021/07/12 10:08:21;;;;;;;1.13;1.00;;;28.80;99.90;;;;;;5013143;28;20224;-72
2021/07/12 10:10:48;;;;;;;1.20;1.10;;;29.20;99.90;;;;;;5006966;28;20204;-71
2021/07/12 10:13:14;;;;;;;1.10;1.05;;;28.60;99.90;;;;;;5033008;28;20197;-70
2021/07/12 10:15:40;;;;;;;1.38;0.98;;;28.50;99.90;;;;;;5040061;28;20328;-71
2021/07/12 10:18:07;;;;;;;0.50;0.50;;;29.70;99.90;;;;;;5027586;28;20701;-69
2021/07/12 10:20:34;;;;;;;1.63;1.40;;;31.40;99.90;;;;;;5030805;28;20173;-69
2021/07/12 10:23:02;;;;;;;0.68;0.68;;;32.10;99.90;;;;;;5019014;28;20192;-69
2021/07/12 10:25:30;;;;;;;0.98;0.63;;;31.90;99.90;;;;;;5042235;28;20256;-69
2021/07/12 10:28:03;;;;;;;1.92;0.85;;;30.50;99.90;;;;;;5066523;28;20276;-69
2021/07/12 10:30:33;;;;;;;1.85;1.38;;;29.30;99.90;;;;;;5112715;28;20186;-70
2021/07/12 10:33:02;;;;;;;0.70;0.60;;;28.70;99.90;;;;;;5112791;28;20185;-68
2021/07/12 10:35:47;;;;;;;3.13;1.08;;;28.80;99.90;;;;;;5112506;28;20220;-69
2021/07/12 10:38:36;;;;;;;1.58;1.08;;;30.10;99.90;;;;;;5112005;28;20166;-69
2021/07/12 10:41:18;;;;;;;1.38;0.98;;;32.00;99.90;;;;;;5110516;28;20162;-69
2021/07/12 10:43:47;;;;;;;2.13;1.33;;;30.80;99.90;;;;;;5111698;28;20219;-69
2021/07/12 10:46:27;;;;;;;1.23;0.57;;;29.60;99.90;;;;;;5111452;28;20206;-69
2021/07/12 10:48:55;;;;;;;1.52;0.63;;;29.20;99.90;;;;;;5099168;28;20198;-68
2021/07/12 10:51:24;;;;;;;1.23;1.05;;;28.80;99.90;;;;;;5090247;28;20209;-68
2021/07/12 10:54:02;;;;;;;0.88;0.50;;;28.50;99.90;;;;;;5091559;28;20160;-68
2021/07/12 10:56:42;;;;;;;2.03;0.98;;;28.30;99.90;;;;;;5090589;28;20241;-68
2021/07/12 10:59:22;;;;;;;26.42;1.50;;;27.70;99.90;;;;;;5090887;28;20224;-72
2021/07/12 11:01:48;;;;;;;1.55;1.02;;;28.20;99.90;;;;;;5091473;28;20187;-69
2021/07/12 11:04:37;;;;;;;0.95;0.95;;;28.90;99.90;;;;;;5090989;28;20186;-70
2021/07/12 11:07:09;;;;;;;1.45;1.02;;;30.30;99.90;;;;;;5090737;28;20167;-71
2021/07/12 11:09:47;;;;;;;0.47;0.45;;;32.40;99.90;;;;;;5091032;28;20203;-70
2021/07/12 11:12:40;;;;;;;1.40;1.05;;;32.70;99.90;;;;;;5089921;28;20151;-70
2021/07/12 11:15:16;;;;;;;1.27;1.13;;;31.50;99.90;;;;;;5086866;28;20186;-70
2021/07/12 11:17:51;;;;;;;0.85;0.63;;;33.00;99.90;;;;;;5088898;28;20586;-69
2021/07/12 11:20:37;;;;;;;1.05;0.95;;;32.50;99.90;;;;;;5071621;28;20206;-69
2021/07/12 11:23:03;;;;;;;0.68;0.68;;;31.10;99.90;;;;;;5072638;28;20269;-70
2021/07/12 11:25:40;;;;;;;1.25;0.98;;;30.40;99.90;;;;;;5090915;28;20186;-68
2021/07/12 11:28:12;;;;;;;0.98;0.98;;;29.20;99.90;;;;;;5090560;28;20546;-68
2021/07/12 11:30:39;;;;;;;1.13;1.10;;;30.30;99.90;;;;;;5073353;28;20218;-69
2021/07/12 11:33:05;;;;;;;1.15;1.15;;;30.90;99.90;;;;;;5052781;28;20172;-69
2021/07/12 11:35:31;;;;;;;0.88;0.88;;;30.50;99.90;;;;;;5080313;28;20168;-69
2021/07/12 11:38:05;;;;;;;0.77;0.77;;;31.30;99.90;;;;;;5088830;28;20186;-72
2021/07/12 11:40:32;;;;;;;1.80;1.20;;;31.20;99.90;;;;;;5089577;28;20187;-70
2021/07/12 11:42:58;;;;;;;1.05;0.70;;;30.40;99.90;;;;;;5069127;28;20278;-69
2021/07/12 11:45:24;;;;;;;0.60;0.60;;;30.80;99.90;;;;;;5087327;28;20231;-69
2021/07/12 11:47:55;;;;;;;1.05;0.57;;;30.90;99.90;;;;;;5083769;28;20199;-69
2021/07/12 11:50:28;;;;;;;3.22;1.17;;;31.50;99.90;;;;;;5090031;28;20175;-68
2021/07/12 11:52:57;;;;;;;2.17;1.42;;;30.90;99.90;;;;;;5089044;28;20202;-69
2021/07/12 11:55:28;;;;;;;0.65;0.65;;;30.60;99.90;;;;;;5090163;28;20229;-69
2021/07/12 11:58:02;;;;;;;1.13;1.02;;;30.40;99.90;;;;;;5090390;28;20212;-68
2021/07/12 12:00:33;;;;;;;1.33;1.05;;;29.40;99.90;;;;;;5072313;28;20173;-69
2021/07/12 12:03:02;;;;;;;3.70;2.33;;;29.60;99.90;;;;;;5089935;28;20175;-68
2021/07/12 12:05:30;;;;;;;1.73;1.63;;;29.60;99.90;;;;;;5089734;28;20195;-69
2021/07/12 12:08:00;;;;;;;0.98;0.73;;;30.10;99.90;;;;;;5090442;28;20219;-68
2021/07/12 12:10:28;;;;;;;1.85;1.13;;;30.20;99.90;;;;;;5071089;28;20167;-68
2021/07/12 12:12:58;;;;;;;0.85;0.60;;;29.40;99.90;;;;;;5089622;28;20195;-68
2021/07/12 12:15:28;;;;;;;0.80;0.57;;;28.90;99.90;;;;;;5072272;28;20167;-69
2021/07/12 12:18:06;;;;;;;0.95;0.75;;;28.50;99.90;;;;;;5089307;28;20164;-68
2021/07/12 12:20:34;;;;;;;0.70;0.68;;;28.30;99.90;;;;;;5090485;28;20170;-68
2021/07/12 12:23:03;;;;;;;6.50;1.33;;;27.90;99.90;;;;;;5076117;28;20222;-69
2021/07/12 12:25:33;;;;;;;1.65;1.55;;;27.90;99.90;;;;;;5070442;28;20161;-71
2021/07/12 12:27:59;;;;;;;1.55;1.45;;;27.40;99.90;;;;;;5070284;28;20188;-69
2021/07/12 12:30:25;;;;;;;3.20;0.93;;;27.90;99.90;;;;;;5069483;28;20160;-69
2021/07/12 12:32:53;;;;;;;2.97;0.80;;;28.20;99.90;;;;;;5069293;28;20164;-69
2021/07/12 12:35:23;;;;;;;1.08;0.93;;;28.60;99.90;;;;;;5070111;28;20156;-69
2021/07/12 12:37:49;;;;;;;1.27;1.10;;;28.60;99.90;;;;;;5052235;28;20182;-69
2021/07/12 12:40:19;;;;;;;2.58;0.73;;;28.40;99.90;;;;;;5070167;28;20160;-69
2021/07/12 12:42:47;;;;;;;1.52;1.42;;;27.70;99.90;;;;;;5069852;28;20156;-69
2021/07/12 12:45:26;;;;;;;0.82;0.50;;;27.50;99.90;;;;;;5069900;28;20224;-69
2021/07/12 12:47:55;;;;;;;0.75;0.75;;;27.90;99.90;;;;;;5075270;28;20217;-69
2021/07/12 12:50:21;;;;;;;1.83;1.67;;;27.90;99.90;;;;;;5065647;28;20172;-70
2021/07/12 12:52:47;;;;;;;0.60;0.60;;;27.90;99.90;;;;;;5086746;28;20155;-69
2021/07/12 12:55:13;;;;;;;2.50;1.65;;;28.30;99.90;;;;;;5087472;28;20245;-69
2021/07/12 12:57:42;;;;;;;0.75;0.73;;;28.40;99.90;;;;;;5079993;28;20707;-69
2021/07/12 13:00:14;;;;;;;1.23;0.75;;;28.30;99.90;;;;;;5069117;28;20223;-69
2021/07/12 13:02:42;;;;;;;0.73;0.73;;;28.20;99.90;;;;;;5065276;28;20193;-70